createdAt,value
2023-03-17T00:00:44.473Z,8.32
2023-03-17T00:03:32.631Z,8.12
2023-03-17T00:06:00.395Z,7.84
2023-03-17T00:08:30.345Z,8.00
2023-03-17T00:10:57.721Z,8.10
2023-03-17T00:13:26.154Z,8.25
2023-03-17T00:15:56.954Z,8.22
2023-03-17T00:18:24.667Z,8.05
2023-03-17T00:20:52.524Z,8.17
2023-03-17T00:23:22.365Z,8.01
2023-03-17T00:25:51.728Z,7.70
2023-03-17T00:28:21.132Z,7.79
2023-03-17T00:30:55.755Z,8.12
2023-03-17T00:33:26.548Z,8.29
2023-03-17T00:35:55.339Z,8.30
2023-03-17T00:38:24.468Z,8.36
2023-03-17T00:40:52.012Z,8.26
2023-03-17T00:43:22.583Z,8.21
2023-03-17T00:45:51.116Z,8.31
2023-03-17T00:48:22.234Z,8.22
2023-03-17T00:50:50.954Z,8.02
2023-03-17T00:53:21.513Z,7.99
2023-03-17T00:55:49.224Z,7.98
2023-03-17T00:58:28.801Z,8.11
2023-03-17T01:00:56.948Z,8.10
2023-03-17T01:03:25.567Z,8.20
2023-03-17T01:05:54.273Z,8.14
2023-03-17T01:08:22.638Z,7.85
2023-03-17T01:10:50.315Z,7.90
2023-03-17T01:13:19.674Z,8.10
2023-03-17T01:15:48.611Z,8.17
2023-03-17T01:18:17.990Z,8.02
2023-03-17T01:20:45.780Z,7.90
2023-03-17T01:23:13.376Z,7.88
2023-03-17T01:25:42.789Z,7.70
2023-03-17T01:28:13.458Z,7.73
2023-03-17T01:30:41.357Z,7.80
2023-03-17T01:33:10.345Z,7.95
2023-03-17T01:35:38.518Z,7.84
2023-03-17T01:38:06.469Z,7.71
2023-03-17T01:40:43.071Z,7.67
2023-03-17T01:43:10.666Z,7.59
2023-03-17T01:46:16.037Z,7.53
2023-03-17T01:49:21.241Z,7.58
2023-03-17T01:52:10.088Z,7.38
2023-03-17T01:55:02.824Z,7.25
2023-03-17T01:57:34.505Z,6.97
2023-03-17T02:00:06.315Z,6.77
2023-03-17T02:02:43.849Z,6.54
2023-03-17T02:05:15.700Z,6.69
2023-03-17T02:07:43.331Z,6.94
2023-03-17T02:10:12.720Z,7.07
2023-03-17T02:12:42.268Z,7.00
2023-03-17T02:15:10.607Z,7.26
2023-03-17T02:17:39.550Z,7.36
2023-03-17T02:20:16.056Z,7.35
2023-03-17T02:22:44.895Z,7.51
2023-03-17T02:25:14.989Z,7.51
2023-03-17T02:27:46.301Z,7.21
2023-03-17T02:30:16.915Z,6.95
2023-03-17T02:32:44.443Z,6.92
2023-03-17T02:35:13.048Z,6.72
2023-03-17T02:37:43.592Z,6.68
2023-03-17T02:40:11.600Z,6.72
2023-03-17T02:42:42.030Z,6.71
2023-03-17T02:45:11.660Z,6.67
2023-03-17T02:47:39.417Z,6.53
2023-03-17T02:50:08.394Z,6.25
2023-03-17T02:52:36.492Z,6.29
2023-03-17T02:55:03.959Z,6.18
2023-03-17T02:57:31.536Z,6.26
2023-03-17T02:59:59.356Z,6.24
2023-03-17T03:02:27.096Z,6.40
2023-03-17T03:04:54.620Z,6.49
2023-03-17T03:07:22.850Z,6.27
2023-03-17T03:09:50.268Z,6.43
2023-03-17T03:12:17.841Z,6.40
2023-03-17T03:14:45.969Z,6.41
2023-03-17T03:17:13.496Z,6.35
2023-03-17T03:19:40.940Z,6.20
2023-03-17T03:22:09.236Z,5.99
2023-03-17T03:24:37.880Z,5.98
2023-03-17T03:27:05.354Z,6.04
2023-03-17T03:29:33.113Z,6.17
2023-03-17T03:32:00.796Z,6.11
2023-03-17T03:34:28.444Z,6.32
2023-03-17T03:36:56.261Z,6.36
2023-03-17T03:39:23.693Z,6.33
2023-03-17T03:41:51.137Z,6.20
2023-03-17T03:44:18.934Z,6.26
2023-03-17T03:46:46.498Z,6.24
2023-03-17T03:49:13.939Z,6.22
2023-03-17T03:51:41.676Z,5.97
2023-03-17T03:54:09.142Z,5.97
2023-03-17T03:56:36.505Z,5.90
2023-03-17T03:59:04.195Z,6.13
2023-03-17T04:01:31.587Z,6.16
2023-03-17T04:03:59.268Z,5.83
2023-03-17T04:06:26.748Z,5.47
2023-03-17T04:08:55.426Z,5.63
2023-03-17T04:11:24.097Z,5.70
2023-03-17T04:13:51.503Z,5.78
2023-03-17T04:16:19.009Z,5.67
2023-03-17T04:18:46.719Z,5.72
2023-03-17T04:21:18.405Z,5.58
2023-03-17T04:23:46.512Z,5.65
2023-03-17T04:26:14.509Z,5.94
2023-03-17T04:28:41.998Z,6.02
2023-03-17T04:31:12.355Z,6.06
2023-03-17T04:33:40.685Z,5.96
2023-03-17T04:36:09.433Z,5.93
2023-03-17T04:38:37.036Z,5.97
2023-03-17T04:41:04.819Z,5.97
2023-03-17T04:43:32.229Z,5.94
2023-03-17T04:45:59.637Z,5.88
2023-03-17T04:48:27.343Z,5.79
2023-03-17T04:50:54.705Z,5.70
2023-03-17T04:53:22.397Z,5.71
2023-03-17T04:55:50.419Z,5.64
2023-03-17T04:58:29.805Z,5.89
2023-03-17T05:00:59.047Z,6.22
2023-03-17T05:03:28.490Z,6.46
2023-03-17T05:05:57.702Z,6.49
2023-03-17T05:08:27.301Z,6.58
2023-03-17T05:10:55.989Z,6.67
2023-03-17T05:13:24.419Z,6.53
2023-03-17T05:15:53.540Z,6.41
2023-03-17T05:18:23.947Z,6.56
2023-03-17T05:20:51.673Z,6.59
2023-03-17T05:23:19.098Z,6.44
2023-03-17T05:25:46.913Z,6.79
2023-03-17T05:28:14.995Z,6.89
2023-03-17T05:30:43.127Z,7.05
2023-03-17T05:33:10.555Z,7.02
2023-03-17T05:35:38.390Z,7.12
2023-03-17T05:38:05.790Z,7.33
2023-03-17T05:40:33.436Z,7.51
2023-03-17T05:43:01.847Z,7.11
2023-03-17T05:45:30.499Z,7.51
2023-03-17T05:47:57.984Z,7.63
2023-03-17T05:50:26.349Z,7.86
2023-03-17T05:52:53.741Z,8.04
2023-03-17T05:55:21.248Z,8.08
2023-03-17T05:57:48.909Z,8.31
2023-03-17T06:00:16.823Z,8.22
2023-03-17T06:02:44.652Z,8.50
2023-03-17T06:05:12.377Z,8.71
2023-03-17T06:07:51.638Z,8.70
2023-03-17T06:10:20.912Z,8.95
2023-03-17T06:12:48.445Z,8.92
2023-03-17T06:15:17.065Z,9.15
2023-03-17T06:17:44.792Z,9.38
2023-03-17T06:20:13.157Z,9.45
2023-03-17T06:22:55.223Z,9.54
2023-03-17T06:25:28.448Z,9.87
2023-03-17T06:27:56.249Z,10.03
2023-03-17T06:30:23.711Z,10.47
2023-03-17T06:32:51.402Z,10.07
2023-03-17T06:35:18.998Z,10.48
2023-03-17T06:37:46.770Z,10.36
2023-03-17T06:40:16.227Z,10.07
2023-03-17T06:42:43.896Z,10.38
2023-03-17T06:45:12.059Z,10.48
2023-03-17T06:47:40.064Z,10.64
2023-03-17T06:50:09.724Z,10.94
2023-03-17T06:52:37.901Z,10.97
2023-03-17T06:55:06.291Z,9.64
2023-03-17T06:57:33.706Z,10.80
2023-03-17T07:00:01.179Z,10.66
2023-03-17T07:02:28.849Z,10.92
2023-03-17T07:04:58.176Z,10.60
2023-03-17T07:07:25.698Z,10.37
2023-03-17T07:09:54.063Z,10.47
2023-03-17T07:12:21.975Z,10.37
2023-03-17T07:14:49.465Z,9.88
2023-03-17T07:17:17.196Z,9.89
2023-03-17T07:19:44.698Z,9.80
2023-03-17T07:22:12.357Z,10.21
2023-03-17T07:24:41.899Z,10.48
2023-03-17T07:27:09.900Z,10.30
2023-03-17T07:29:37.511Z,10.01
2023-03-17T07:32:07.335Z,10.35
2023-03-17T07:34:35.769Z,10.03
2023-03-17T07:37:03.504Z,10.18
2023-03-17T07:39:31.332Z,9.90
2023-03-17T07:41:58.802Z,10.49
2023-03-17T07:44:27.530Z,10.61
2023-03-17T07:46:55.484Z,10.95
2023-03-17T07:49:39.969Z,11.32
2023-03-17T07:52:09.770Z,11.67
2023-03-17T07:54:37.773Z,12.16
2023-03-17T07:57:06.367Z,12.48
2023-03-17T07:59:34.088Z,15.72
2023-03-17T08:02:01.840Z,16.52
2023-03-17T08:04:29.634Z,19.06
2023-03-17T08:06:57.684Z,18.19
2023-03-17T08:09:25.651Z,18.39
2023-03-17T08:11:53.445Z,19.13
2023-03-17T08:14:21.317Z,18.65
2023-03-17T08:16:48.808Z,17.09
2023-03-17T08:19:16.599Z,13.78
2023-03-17T08:21:44.081Z,15.14
2023-03-17T08:24:11.919Z,13.96
2023-03-17T08:26:39.713Z,15.03
2023-03-17T08:29:08.194Z,15.06
2023-03-17T08:31:35.812Z,13.90
2023-03-17T08:34:04.453Z,12.62
2023-03-17T08:36:31.913Z,11.82
2023-03-17T08:38:59.422Z,10.61
2023-03-17T08:41:28.297Z,11.47
2023-03-17T08:43:56.104Z,11.48
2023-03-17T08:46:31.588Z,10.10
2023-03-17T08:48:59.912Z,10.03
2023-03-17T08:51:31.715Z,11.09
2023-03-17T08:53:59.751Z,11.24
2023-03-17T08:56:27.840Z,10.38
2023-03-17T08:58:55.770Z,10.96
2023-03-17T09:01:24.578Z,11.03
2023-03-17T09:03:53.602Z,11.21
2023-03-17T09:06:22.524Z,11.43
2023-03-17T09:08:55.339Z,11.75
2023-03-17T09:11:28.919Z,11.95
2023-03-17T09:13:56.745Z,11.50
2023-03-17T09:16:25.331Z,11.46
2023-03-17T09:18:52.936Z,11.51
2023-03-17T09:21:21.224Z,12.08
2023-03-17T09:23:48.790Z,11.30
2023-03-17T09:26:16.422Z,11.16
2023-03-17T09:28:44.768Z,12.12
2023-03-17T09:31:12.520Z,13.11
2023-03-17T09:33:40.746Z,11.68
2023-03-17T09:36:09.960Z,12.03
2023-03-17T09:38:38.004Z,11.86
2023-03-17T09:41:20.730Z,12.73
2023-03-17T09:44:07.002Z,12.69
2023-03-17T09:46:40.793Z,12.38
2023-03-17T09:49:12.224Z,12.14
2023-03-17T09:51:39.801Z,13.35
2023-03-17T09:54:28.304Z,13.16
2023-03-17T09:57:10.856Z,14.08
2023-03-17T09:59:47.453Z,13.57
2023-03-17T10:02:22.968Z,13.75
2023-03-17T10:04:51.737Z,13.96
2023-03-17T10:07:37.322Z,14.23
2023-03-17T10:10:05.708Z,14.19
2023-03-17T10:12:55.897Z,14.19
2023-03-17T10:15:32.397Z,14.60
2023-03-17T10:18:00.160Z,14.33
2023-03-17T10:20:30.781Z,14.99
2023-03-17T10:23:01.709Z,15.20
2023-03-17T10:25:32.762Z,14.30
2023-03-17T10:28:18.953Z,13.56
2023-03-17T10:30:46.594Z,14.81
2023-03-17T10:33:14.168Z,14.33
2023-03-17T10:35:45.148Z,14.21
2023-03-17T10:38:17.881Z,14.64
2023-03-17T10:40:48.039Z,14.32
2023-03-17T10:43:20.598Z,14.12
2023-03-17T10:46:03.087Z,12.66
2023-03-17T10:48:36.244Z,12.67
2023-03-17T10:51:11.073Z,13.64
2023-03-17T10:53:43.840Z,13.01
2023-03-17T10:56:21.212Z,13.50
2023-03-17T10:58:50.653Z,13.29
2023-03-17T11:01:22.837Z,13.54
2023-03-17T11:03:50.900Z,14.09
2023-03-17T11:06:20.493Z,14.17
2023-03-17T11:08:50.587Z,13.92
2023-03-17T11:11:34.610Z,13.63
2023-03-17T11:14:06.102Z,14.59
2023-03-17T11:16:37.747Z,15.09
2023-03-17T11:19:10.170Z,14.47
2023-03-17T11:21:54.543Z,14.78
2023-03-17T11:24:31.462Z,14.09
2023-03-17T11:27:06.225Z,13.87
2023-03-17T11:29:37.359Z,13.85
2023-03-17T11:32:29.668Z,13.12
2023-03-17T11:35:28.414Z,12.95
2023-03-17T11:38:11.681Z,13.02
2023-03-17T11:40:51.558Z,13.74
2023-03-17T11:43:43.942Z,13.97
2023-03-17T11:46:16.977Z,13.92
2023-03-17T11:49:00.645Z,13.73
2023-03-17T11:51:33.620Z,14.32
2023-03-17T11:54:19.347Z,13.85
2023-03-17T11:56:51.883Z,12.73
2023-03-17T11:59:52.467Z,13.26
2023-03-17T12:02:36.960Z,14.20
2023-03-17T12:05:10.970Z,12.87
2023-03-17T12:07:42.401Z,13.68
2023-03-17T12:10:23.452Z,12.85
2023-03-17T12:12:54.914Z,13.22
2023-03-17T12:15:30.296Z,14.25
2023-03-17T12:17:59.518Z,13.94
2023-03-17T12:20:34.079Z,13.28
2023-03-17T12:23:07.430Z,13.72
2023-03-17T12:25:51.240Z,13.03
2023-03-17T12:28:27.783Z,12.83
2023-03-17T12:31:04.121Z,12.47
2023-03-17T12:33:38.423Z,14.04
2023-03-17T12:36:09.068Z,14.09
2023-03-17T12:38:47.115Z,13.45
2023-03-17T12:41:49.127Z,12.75
2023-03-17T12:44:44.791Z,14.05
2023-03-17T12:47:24.385Z,13.92
2023-03-17T12:50:29.840Z,12.81
2023-03-17T12:53:26.683Z,13.54
2023-03-17T12:55:58.556Z,12.92
2023-03-17T12:58:31.349Z,13.67
2023-03-17T13:01:09.314Z,13.10
2023-03-17T13:03:47.081Z,13.69
2023-03-17T13:06:19.135Z,13.54
2023-03-17T13:08:50.376Z,13.87
2023-03-17T13:11:27.227Z,13.87
2023-03-17T13:13:54.852Z,13.47
2023-03-17T13:16:39.258Z,14.05
2023-03-17T13:19:20.849Z,14.12
2023-03-17T13:22:00.646Z,14.24
2023-03-17T13:24:42.409Z,14.67
2023-03-17T13:27:12.263Z,14.53
2023-03-17T13:29:43.581Z,13.86
2023-03-17T13:32:17.069Z,13.25
2023-03-17T13:35:01.198Z,12.47
2023-03-17T13:37:31.154Z,12.46
2023-03-17T13:40:10.716Z,12.63
2023-03-17T13:42:50.700Z,13.21
2023-03-17T13:45:39.305Z,13.43
2023-03-17T13:48:36.387Z,12.73
2023-03-17T13:51:24.131Z,12.81
2023-03-17T13:53:59.043Z,13.21
2023-03-17T13:56:36.561Z,12.29
2023-03-17T13:59:05.373Z,13.52
2023-03-17T14:01:43.075Z,13.34
2023-03-17T14:04:20.408Z,13.45
2023-03-17T14:06:50.765Z,11.33
2023-03-17T14:09:25.425Z,12.19
2023-03-17T14:11:53.593Z,12.85
2023-03-17T14:15:07.620Z,13.27
2023-03-17T14:17:41.836Z,12.74
2023-03-17T14:20:15.645Z,12.47
2023-03-17T14:22:46.007Z,13.33
2023-03-17T14:25:17.142Z,13.86
2023-03-17T14:27:47.549Z,12.79
2023-03-17T14:30:21.683Z,12.29
2023-03-17T14:32:58.993Z,12.82
2023-03-17T14:35:33.794Z,13.45
2023-03-17T14:38:01.966Z,14.20
2023-03-17T14:40:32.392Z,14.27
2023-03-17T14:42:59.796Z,13.63
2023-03-17T14:45:53.031Z,14.49
2023-03-17T14:48:27.363Z,13.90
2023-03-17T14:50:56.819Z,13.81
2023-03-17T14:53:25.172Z,14.87
2023-03-17T14:55:53.110Z,14.71
2023-03-17T14:58:37.183Z,14.32
2023-03-17T15:01:20.984Z,12.14
2023-03-17T15:03:57.127Z,12.24
2023-03-17T15:06:30.535Z,13.44
2023-03-17T15:08:59.653Z,13.45
2023-03-17T15:11:36.362Z,13.84
2023-03-17T15:14:12.772Z,13.63
2023-03-17T15:16:45.844Z,13.98
2023-03-17T15:19:46.382Z,13.52
2023-03-17T15:22:32.039Z,12.47
2023-03-17T15:25:22.074Z,13.61
2023-03-17T15:27:49.819Z,14.06
2023-03-17T15:30:18.026Z,14.15
2023-03-17T15:32:51.819Z,14.11
2023-03-17T15:35:19.867Z,14.24
2023-03-17T15:37:47.519Z,13.22
2023-03-17T15:40:15.712Z,13.15
2023-03-17T15:42:43.481Z,12.45
2023-03-17T15:45:14.939Z,13.22
2023-03-17T15:47:44.250Z,12.68
2023-03-17T15:50:29.331Z,11.91
2023-03-17T15:52:57.885Z,12.74
2023-03-17T15:55:30.840Z,13.46
2023-03-17T15:57:59.142Z,12.09
2023-03-17T16:00:29.563Z,11.32
2023-03-17T16:03:06.568Z,12.77
2023-03-17T16:05:35.359Z,12.54
2023-03-17T16:08:03.155Z,12.69
2023-03-17T16:10:32.555Z,12.47
2023-03-17T16:13:00.410Z,13.27
2023-03-17T16:15:31.280Z,13.22
2023-03-17T16:18:01.638Z,13.09
2023-03-17T16:20:44.323Z,13.11
2023-03-17T16:23:17.473Z,12.53
2023-03-17T16:25:46.242Z,12.23
2023-03-17T16:28:17.912Z,12.90
2023-03-17T16:30:46.478Z,13.14
2023-03-17T16:33:23.697Z,13.63
2023-03-17T16:35:53.341Z,13.13
2023-03-17T16:38:24.668Z,13.66
2023-03-17T16:40:54.184Z,13.72
2023-03-17T16:43:33.585Z,13.46
2023-03-17T16:46:03.016Z,13.87
2023-03-17T16:48:31.169Z,14.06
2023-03-17T16:50:58.600Z,14.16
2023-03-17T16:53:26.492Z,13.46
2023-03-17T16:55:54.546Z,13.93
2023-03-17T16:58:24.844Z,13.63
2023-03-17T17:01:02.127Z,13.87
2023-03-17T17:03:31.145Z,14.10
2023-03-17T17:06:00.050Z,13.12
2023-03-17T17:08:27.499Z,13.20
2023-03-17T17:10:54.918Z,13.94
2023-03-17T17:13:22.838Z,13.93
2023-03-17T17:15:50.298Z,13.96
2023-03-17T17:18:24.635Z,13.73
2023-03-17T17:20:53.690Z,13.46
2023-03-17T17:23:26.084Z,13.11
2023-03-17T17:25:54.496Z,13.52
2023-03-17T17:28:23.971Z,13.67
2023-03-17T17:30:52.089Z,13.79
2023-03-17T17:33:20.371Z,13.58
2023-03-17T17:35:49.101Z,13.58
2023-03-17T17:38:28.951Z,13.39
2023-03-17T17:40:58.376Z,13.03
2023-03-17T17:43:26.191Z,13.40
2023-03-17T17:45:54.551Z,13.37
2023-03-17T17:48:24.370Z,13.36
2023-03-17T17:50:52.985Z,13.19
2023-03-17T17:53:20.745Z,13.48
2023-03-17T17:55:49.600Z,12.94
2023-03-17T17:58:19.474Z,13.36
2023-03-17T18:00:46.992Z,13.15
2023-03-17T18:03:15.053Z,13.42
2023-03-17T18:05:42.905Z,13.37
2023-03-17T18:08:13.429Z,13.35
2023-03-17T18:10:41.380Z,12.94
2023-03-17T18:13:09.603Z,13.32
2023-03-17T18:15:37.191Z,13.37
2023-03-17T18:18:05.772Z,13.57
2023-03-17T18:20:33.609Z,13.65
2023-03-17T18:23:01.488Z,13.11
2023-03-17T18:25:29.853Z,13.06
2023-03-17T18:27:57.466Z,13.20
2023-03-17T18:30:27.805Z,13.64
2023-03-17T18:32:58.420Z,13.54
2023-03-17T18:35:27.661Z,13.68
2023-03-17T18:37:57.315Z,12.83
2023-03-17T18:40:26.150Z,12.83
2023-03-17T18:42:53.817Z,11.66
2023-03-17T18:45:21.783Z,12.06
2023-03-17T18:47:49.229Z,12.32
2023-03-17T18:50:17.601Z,11.96
2023-03-17T18:52:45.952Z,11.12
2023-03-17T18:55:15.151Z,10.44
2023-03-17T18:57:44.778Z,11.43
2023-03-17T19:00:14.590Z,10.76
2023-03-17T19:02:42.158Z,11.75
2023-03-17T19:05:10.108Z,10.36
2023-03-17T19:07:40.183Z,11.05
2023-03-17T19:10:09.854Z,10.88
2023-03-17T19:12:37.628Z,11.05
2023-03-17T19:15:06.696Z,11.00
2023-03-17T19:17:34.710Z,10.91
2023-03-17T19:20:02.837Z,11.60
2023-03-17T19:22:30.497Z,11.27
2023-03-17T19:24:58.036Z,10.87
2023-03-17T19:27:25.913Z,12.23
2023-03-17T19:29:53.859Z,12.34
2023-03-17T19:32:21.291Z,12.68
2023-03-17T19:34:48.780Z,12.14
2023-03-17T19:37:16.875Z,12.16
2023-03-17T19:39:44.990Z,12.37
2023-03-17T19:42:12.677Z,11.85
2023-03-17T19:44:40.643Z,11.95
2023-03-17T19:47:08.500Z,12.37
2023-03-17T19:49:37.637Z,12.62
2023-03-17T19:52:06.570Z,12.79
2023-03-17T19:54:34.920Z,12.83
2023-03-17T19:57:02.370Z,12.65
2023-03-17T19:59:30.464Z,12.57
2023-03-17T20:01:58.529Z,12.66
2023-03-17T20:04:26.447Z,12.81
2023-03-17T20:06:55.730Z,12.82
2023-03-17T20:09:24.767Z,12.67
2023-03-17T20:11:56.523Z,12.64
2023-03-17T20:14:23.990Z,12.62
2023-03-17T20:16:51.943Z,12.58
2023-03-17T20:19:20.080Z,12.63
2023-03-17T20:21:47.851Z,12.52
2023-03-17T20:24:15.563Z,12.45
2023-03-17T20:26:44.681Z,12.47
2023-03-17T20:29:16.190Z,12.46
2023-03-17T20:31:44.197Z,12.47
2023-03-17T20:34:11.758Z,12.41
2023-03-17T20:36:42.405Z,12.34
2023-03-17T20:39:14.838Z,12.30
2023-03-17T20:41:42.430Z,12.27
2023-03-17T20:44:10.094Z,12.23
2023-03-17T20:46:38.925Z,12.18
2023-03-17T20:49:07.454Z,12.02
2023-03-17T20:51:35.595Z,11.79
2023-03-17T20:54:03.553Z,11.95
2023-03-17T20:56:33.772Z,11.98
2023-03-17T20:59:04.913Z,11.98
2023-03-17T21:01:34.828Z,11.89
2023-03-17T21:04:06.447Z,11.84
2023-03-17T21:06:34.289Z,11.91
2023-03-17T21:09:02.436Z,11.75
2023-03-17T21:11:30.713Z,11.50
2023-03-17T21:13:58.616Z,11.41
2023-03-17T21:16:28.408Z,11.29
2023-03-17T21:18:56.196Z,11.46
2023-03-17T21:21:24.755Z,11.59
2023-03-17T21:23:52.787Z,11.43
2023-03-17T21:26:20.624Z,11.56
2023-03-17T21:28:48.739Z,11.52
2023-03-17T21:31:17.304Z,11.05
2023-03-17T21:33:44.937Z,11.21
2023-03-17T21:36:12.654Z,11.32
2023-03-17T21:38:40.523Z,11.50
2023-03-17T21:41:33.725Z,11.65
2023-03-17T21:44:02.628Z,11.60
2023-03-17T21:46:31.691Z,11.19
2023-03-17T21:48:59.173Z,11.07
2023-03-17T21:51:27.348Z,10.75
2023-03-17T21:53:54.714Z,11.04
2023-03-17T21:56:22.129Z,11.01
2023-03-17T21:58:50.236Z,10.67
2023-03-17T22:01:18.491Z,10.24
2023-03-17T22:03:46.197Z,10.81
2023-03-17T22:06:14.992Z,10.76
2023-03-17T22:08:42.947Z,11.03
2023-03-17T22:11:13.250Z,11.02
2023-03-17T22:13:41.433Z,11.01
2023-03-17T22:16:10.018Z,10.98
2023-03-17T22:18:38.170Z,10.35
2023-03-17T22:21:06.263Z,10.18
2023-03-17T22:23:39.630Z,10.40
2023-03-17T22:26:13.317Z,10.62
2023-03-17T22:28:41.455Z,10.77
2023-03-17T22:31:18.087Z,10.88
2023-03-17T22:33:46.831Z,10.54
2023-03-17T22:36:15.383Z,10.65
2023-03-17T22:38:42.791Z,10.70
2023-03-17T22:41:16.020Z,10.81
2023-03-17T22:43:44.244Z,10.75
2023-03-17T22:46:11.894Z,10.83
2023-03-17T22:48:40.430Z,10.70
2023-03-17T22:51:11.578Z,10.59
2023-03-17T22:53:39.780Z,10.67
2023-03-17T22:56:08.287Z,10.61
2023-03-17T22:58:36.064Z,10.28
2023-03-17T23:01:05.687Z,10.46
2023-03-17T23:03:33.965Z,10.39
2023-03-17T23:06:03.851Z,10.22
2023-03-17T23:08:35.030Z,10.26
2023-03-17T23:11:08.694Z,10.36
2023-03-17T23:13:36.485Z,10.31
2023-03-17T23:16:04.721Z,10.17
2023-03-17T23:18:32.293Z,10.44
2023-03-17T23:21:00.142Z,9.28
2023-03-17T23:23:27.979Z,9.84
2023-03-17T23:25:55.397Z,9.61
2023-03-17T23:28:23.223Z,9.69
2023-03-17T23:30:51.960Z,8.90
2023-03-17T23:33:21.594Z,9.30
2023-03-17T23:35:50.309Z,9.52
2023-03-17T23:38:19.556Z,9.63
2023-03-17T23:40:48.116Z,8.88
2023-03-17T23:43:15.523Z,8.01
2023-03-17T23:45:43.327Z,8.29
2023-03-17T23:48:11.786Z,8.40
2023-03-17T23:50:39.941Z,9.12
2023-03-17T23:53:07.627Z,9.85
2023-03-17T23:55:35.694Z,9.74
2023-03-17T23:58:03.398Z,9.73
